sensor_id;sensor_type;location;lat;lon;timestamp;temperature;humidity
20881;DHT22;10600;53.096;8.802;2024-03-06T00:00:50;4.90;99.90
20881;DHT22;10600;53.096;8.802;2024-03-06T00:01:51;4.90;99.90
20881;DHT22;10600;53.096;8.802;2024-03-06T00:02:52;4.90;99.90
20881;DHT22;10600;53.096;8.802;2024-03-06T00:03:52;4.90;99.90
20881;DHT22;10600;53.096;8.802;2024-03-06T00:04:53;4.90;99.90
20881;DHT22;10600;53.096;8.802;2024-03-06T00:05:54;4.90;99.90
20881;DHT22;10600;53.096;8.802;2024-03-06T00:06:55;4.90;99.90
20881;DHT22;10600;53.096;8.802;2024-03-06T00:07:55;4.90;99.90
20881;DHT22;10600;53.096;8.802;2024-03-06T00:08:56;4.90;99.90
20881;DHT22;10600;53.096;8.802;2024-03-06T00:09:57;4.90;99.90
20881;DHT22;10600;53.096;8.802;2024-03-06T00:10:57;4.90;99.90
20881;DHT22;10600;53.096;8.802;2024-03-06T00:11:58;4.90;99.90
20881;DHT22;10600;53.096;8.802;2024-03-06T00:12:58;4.90;99.90
20881;DHT22;10600;53.096;8.802;2024-03-06T00:13:59;4.90;99.90
20881;DHT22;10600;53.096;8.802;2024-03-06T00:15:00;5.00;99.90
20881;DHT22;10600;53.096;8.802;2024-03-06T00:16:02;5.00;99.90
20881;DHT22;10600;53.096;8.802;2024-03-06T00:17:03;5.00;99.90
20881;DHT22;10600;53.096;8.802;2024-03-06T00:18:07;5.00;99.90
20881;DHT22;10600;53.096;8.802;2024-03-06T00:19:07;5.00;99.90
20881;DHT22;10600;53.096;8.802;2024-03-06T00:20:08;5.00;99.90
20881;DHT22;10600;53.096;8.802;2024-03-06T00:21:11;5.00;99.90
20881;DHT22;10600;53.096;8.802;2024-03-06T00:22:12;4.90;99.90
20881;DHT22;10600;53.096;8.802;2024-03-06T00:23:12;4.90;99.90
20881;DHT22;10600;53.096;8.802;2024-03-06T00:24:13;4.90;99.90
20881;DHT22;10600;53.096;8.802;2024-03-06T00:25:14;4.90;99.90
20881;DHT22;10600;53.096;8.802;2024-03-06T00:26:15;4.90;99.90
20881;DHT22;10600;53.096;8.802;2024-03-06T00:27:15;4.90;99.90
20881;DHT22;10600;53.096;8.802;2024-03-06T00:28:16;4.90;99.90
20881;DHT22;10600;53.096;8.802;2024-03-06T00:29:17;4.90;99.90
20881;DHT22;10600;53.096;8.802;2024-03-06T00:30:17;4.90;99.90
20881;DHT22;10600;53.096;8.802;2024-03-06T00:31:18;4.90;99.90
20881;DHT22;10600;53.096;8.802;2024-03-06T00:32:18;4.90;99.90
20881;DHT22;10600;53.096;8.802;2024-03-06T00:33:19;4.90;99.90
20881;DHT22;10600;53.096;8.802;2024-03-06T00:34:19;4.90;99.90
20881;DHT22;10600;53.096;8.802;2024-03-06T00:35:20;4.90;99.90
20881;DHT22;10600;53.096;8.802;2024-03-06T00:36:21;4.90;99.90
20881;DHT22;10600;53.096;8.802;2024-03-06T00:37:22;4.90;99.90
20881;DHT22;10600;53.096;8.802;2024-03-06T00:38:23;4.90;99.90
20881;DHT22;10600;53.096;8.802;2024-03-06T00:39:23;4.90;99.90
20881;DHT22;10600;53.096;8.802;2024-03-06T00:40:24;4.90;99.90
20881;DHT22;10600;53.096;8.802;2024-03-06T00:41:25;4.90;99.90
20881;DHT22;10600;53.096;8.802;2024-03-06T00:42:25;4.90;99.90
20881;DHT22;10600;53.096;8.802;2024-03-06T00:43:26;4.90;99.90
20881;DHT22;10600;53.096;8.802;2024-03-06T00:44:26;4.90;99.90
20881;DHT22;10600;53.096;8.802;2024-03-06T00:45:27;4.90;99.90
20881;DHT22;10600;53.096;8.802;2024-03-06T00:46:28;4.90;99.90
20881;DHT22;10600;53.096;8.802;2024-03-06T00:47:28;4.90;99.90
20881;DHT22;10600;53.096;8.802;2024-03-06T00:48:29;4.90;99.90
20881;DHT22;10600;53.096;8.802;2024-03-06T00:49:29;4.90;99.90
20881;DHT22;10600;53.096;8.802;2024-03-06T00:50:30;4.90;99.90
20881;DHT22;10600;53.096;8.802;2024-03-06T00:51:30;4.90;99.90
20881;DHT22;10600;53.096;8.802;2024-03-06T00:52:32;4.90;99.90
20881;DHT22;10600;53.096;8.802;2024-03-06T00:53:33;4.90;99.90
20881;DHT22;10600;53.096;8.802;2024-03-06T00:54:33;4.90;99.90
20881;DHT22;10600;53.096;8.802;2024-03-06T00:55:34;5.00;99.90
20881;DHT22;10600;53.096;8.802;2024-03-06T00:56:38;4.90;99.90
20881;DHT22;10600;53.096;8.802;2024-03-06T00:57:39;4.90;99.90
20881;DHT22;10600;53.096;8.802;2024-03-06T00:58:40;4.90;99.90
20881;DHT22;10600;53.096;8.802;2024-03-06T00:59:40;4.90;99.90
20881;DHT22;10600;53.096;8.802;2024-03-06T01:00:41;4.90;99.90
20881;DHT22;10600;53.096;8.802;2024-03-06T01:01:41;4.90;99.90
20881;DHT22;10600;53.096;8.802;2024-03-06T01:02:42;4.90;99.90
20881;DHT22;10600;53.096;8.802;2024-03-06T01:03:42;4.90;99.90
20881;DHT22;10600;53.096;8.802;2024-03-06T01:04:43;4.90;99.90
20881;DHT22;10600;53.096;8.802;2024-03-06T01:05:43;4.90;99.90
20881;DHT22;10600;53.096;8.802;2024-03-06T01:06:44;4.90;99.90
20881;DHT22;10600;53.096;8.802;2024-03-06T01:07:46;5.00;99.90
20881;DHT22;10600;53.096;8.802;2024-03-06T01:08:46;4.90;99.90
20881;DHT22;10600;53.096;8.802;2024-03-06T01:09:47;4.90;99.90
20881;DHT22;10600;53.096;8.802;2024-03-06T01:10:48;4.90;99.90
20881;DHT22;10600;53.096;8.802;2024-03-06T01:11:48;4.90;99.90
20881;DHT22;10600;53.096;8.802;2024-03-06T01:12:49;4.90;99.90
20881;DHT22;10600;53.096;8.802;2024-03-06T01:13:49;4.90;99.90
20881;DHT22;10600;53.096;8.802;2024-03-06T01:14:50;4.80;99.90
20881;DHT22;10600;53.096;8.802;2024-03-06T01:15:50;4.80;99.90
20881;DHT22;10600;53.096;8.802;2024-03-06T01:16:51;4.80;99.90
20881;DHT22;10600;53.096;8.802;2024-03-06T01:17:51;4.80;99.90
20881;DHT22;10600;53.096;8.802;2024-03-06T01:18:52;4.90;99.90
20881;DHT22;10600;53.096;8.802;2024-03-06T01:19:52;4.80;99.90
20881;DHT22;10600;53.096;8.802;2024-03-06T01:20:53;4.80;99.90
20881;DHT22;10600;53.096;8.802;2024-03-06T01:21:53;4.90;99.90
20881;DHT22;10600;53.096;8.802;2024-03-06T01:22:54;4.80;99.90
20881;DHT22;10600;53.096;8.802;2024-03-06T01:23:54;4.90;99.90
20881;DHT22;10600;53.096;8.802;2024-03-06T01:24:55;4.90;99.90
20881;DHT22;10600;53.096;8.802;2024-03-06T01:25:55;4.90;99.90
20881;DHT22;10600;53.096;8.802;2024-03-06T01:26:56;4.90;99.90
20881;DHT22;10600;53.096;8.802;2024-03-06T01:27:57;4.90;99.90
20881;DHT22;10600;53.096;8.802;2024-03-06T01:28:57;4.90;99.90
20881;DHT22;10600;53.096;8.802;2024-03-06T01:29:58;4.90;99.90
20881;DHT22;10600;53.096;8.802;2024-03-06T01:30:59;4.90;99.90
20881;DHT22;10600;53.096;8.802;2024-03-06T01:31:59;4.90;99.90
20881;DHT22;10600;53.096;8.802;2024-03-06T01:33:00;4.90;99.90
20881;DHT22;10600;53.096;8.802;2024-03-06T01:34:00;4.90;99.90
20881;DHT22;10600;53.096;8.802;2024-03-06T01:35:01;4.90;99.90
20881;DHT22;10600;53.096;8.802;2024-03-06T01:36:01;4.90;99.90
20881;DHT22;10600;53.096;8.802;2024-03-06T01:37:02;4.80;99.90
20881;DHT22;10600;53.096;8.802;2024-03-06T01:38:02;4.90;99.90
20881;DHT22;10600;53.096;8.802;2024-03-06T01:39:03;4.90;99.90
20881;DHT22;10600;53.096;8.802;2024-03-06T01:40:04;4.90;99.90
20881;DHT22;10600;53.096;8.802;2024-03-06T01:41:05;4.90;99.90
20881;DHT22;10600;53.096;8.802;2024-03-06T01:42:06;4.90;99.90
20881;DHT22;10600;53.096;8.802;2024-03-06T01:43:18;4.90;99.90
20881;DHT22;10600;53.096;8.802;2024-03-06T01:44:19;4.90;99.90
20881;DHT22;10600;53.096;8.802;2024-03-06T01:45:20;4.90;99.90
20881;DHT22;10600;53.096;8.802;2024-03-06T01:46:20;5.00;99.90
20881;DHT22;10600;53.096;8.802;2024-03-06T01:47:21;5.00;99.90
20881;DHT22;10600;53.096;8.802;2024-03-06T01:48:23;5.00;99.90
20881;DHT22;10600;53.096;8.802;2024-03-06T01:49:26;5.00;99.90
20881;DHT22;10600;53.096;8.802;2024-03-06T01:50:27;4.90;99.90
20881;DHT22;10600;53.096;8.802;2024-03-06T01:51:28;4.90;99.90
20881;DHT22;10600;53.096;8.802;2024-03-06T01:52:29;4.90;99.90
20881;DHT22;10600;53.096;8.802;2024-03-06T01:53:31;5.00;99.90
20881;DHT22;10600;53.096;8.802;2024-03-06T01:54:32;5.00;99.90
20881;DHT22;10600;53.096;8.802;2024-03-06T01:55:33;5.00;99.90
20881;DHT22;10600;53.096;8.802;2024-03-06T01:56:34;5.00;99.90
20881;DHT22;10600;53.096;8.802;2024-03-06T01:57:35;5.00;99.90
20881;DHT22;10600;53.096;8.802;2024-03-06T01:58:38;4.90;99.90
20881;DHT22;10600;53.096;8.802;2024-03-06T01:59:40;5.00;99.90
20881;DHT22;10600;53.096;8.802;2024-03-06T02:00:41;4.90;99.90
20881;DHT22;10600;53.096;8.802;2024-03-06T02:01:42;5.00;99.90
20881;DHT22;10600;53.096;8.802;2024-03-06T02:02:43;5.00;99.90
20881;DHT22;10600;53.096;8.802;2024-03-06T02:03:45;4.90;99.90
20881;DHT22;10600;53.096;8.802;2024-03-06T02:04:45;5.00;99.90
20881;DHT22;10600;53.096;8.802;2024-03-06T02:05:48;5.00;99.90
20881;DHT22;10600;53.096;8.802;2024-03-06T02:06:49;5.00;99.90
20881;DHT22;10600;53.096;8.802;2024-03-06T02:07:50;4.90;99.90
20881;DHT22;10600;53.096;8.802;2024-03-06T02:08:54;4.90;99.90
20881;DHT22;10600;53.096;8.802;2024-03-06T02:09:54;5.00;99.90
20881;DHT22;10600;53.096;8.802;2024-03-06T02:10:55;5.00;99.90
20881;DHT22;10600;53.096;8.802;2024-03-06T02:11:56;4.90;99.90
20881;DHT22;10600;53.096;8.802;2024-03-06T02:12:56;4.90;99.90
20881;DHT22;10600;53.096;8.802;2024-03-06T02:13:58;4.90;99.90
20881;DHT22;10600;53.096;8.802;2024-03-06T02:14:59;4.90;99.90
20881;DHT22;10600;53.096;8.802;2024-03-06T02:15:59;4.90;99.90
20881;DHT22;10600;53.096;8.802;2024-03-06T02:17:00;5.00;99.90
20881;DHT22;10600;53.096;8.802;2024-03-06T02:18:05;5.00;99.90
20881;DHT22;10600;53.096;8.802;2024-03-06T02:19:07;5.00;99.90
20881;DHT22;10600;53.096;8.802;2024-03-06T02:20:08;5.00;99.90
20881;DHT22;10600;53.096;8.802;2024-03-06T02:21:12;5.00;99.90
20881;DHT22;10600;53.096;8.802;2024-03-06T02:22:13;5.00;99.90
20881;DHT22;10600;53.096;8.802;2024-03-06T02:23:13;5.00;99.90
20881;DHT22;10600;53.096;8.802;2024-03-06T02:24:15;5.00;99.90
20881;DHT22;10600;53.096;8.802;2024-03-06T02:25:16;5.00;99.90
20881;DHT22;10600;53.096;8.802;2024-03-06T02:26:17;4.90;99.90
20881;DHT22;10600;53.096;8.802;2024-03-06T02:27:18;4.90;99.90
20881;DHT22;10600;53.096;8.802;2024-03-06T02:28:18;5.00;99.90
20881;DHT22;10600;53.096;8.802;2024-03-06T02:29:19;4.90;99.90
20881;DHT22;10600;53.096;8.802;2024-03-06T02:30:20;4.90;99.90
20881;DHT22;10600;53.096;8.802;2024-03-06T02:31:23;4.90;99.90
20881;DHT22;10600;53.096;8.802;2024-03-06T02:32:24;4.90;99.90
20881;DHT22;10600;53.096;8.802;2024-03-06T02:33:25;4.90;99.90
20881;DHT22;10600;53.096;8.802;2024-03-06T02:34:26;4.90;99.90
20881;DHT22;10600;53.096;8.802;2024-03-06T02:35:27;4.90;99.90
20881;DHT22;10600;53.096;8.802;2024-03-06T02:36:27;4.90;99.90
20881;DHT22;10600;53.096;8.802;2024-03-06T02:37:28;4.90;99.90
20881;DHT22;10600;53.096;8.802;2024-03-06T02:38:29;4.90;99.90
20881;DHT22;10600;53.096;8.802;2024-03-06T02:39:29;4.90;99.90
20881;DHT22;10600;53.096;8.802;2024-03-06T02:40:33;4.90;99.90
20881;DHT22;10600;53.096;8.802;2024-03-06T02:41:33;4.90;99.90
20881;DHT22;10600;53.096;8.802;2024-03-06T02:42:34;4.80;99.90
20881;DHT22;10600;53.096;8.802;2024-03-06T02:43:34;4.80;99.90
20881;DHT22;10600;53.096;8.802;2024-03-06T02:44:35;4.80;99.90
20881;DHT22;10600;53.096;8.802;2024-03-06T02:45:36;4.80;99.90
20881;DHT22;10600;53.096;8.802;2024-03-06T02:46:36;4.80;99.90
20881;DHT22;10600;53.096;8.802;2024-03-06T02:47:37;4.80;99.90
20881;DHT22;10600;53.096;8.802;2024-03-06T02:48:38;4.80;99.90
20881;DHT22;10600;53.096;8.802;2024-03-06T02:49:38;4.80;99.90
20881;DHT22;10600;53.096;8.802;2024-03-06T02:50:39;4.80;99.90
20881;DHT22;10600;53.096;8.802;2024-03-06T02:51:39;4.80;99.90
20881;DHT22;10600;53.096;8.802;2024-03-06T02:52:40;4.80;99.90
20881;DHT22;10600;53.096;8.802;2024-03-06T02:53:40;4.80;99.90
20881;DHT22;10600;53.096;8.802;2024-03-06T02:54:41;4.80;99.90
20881;DHT22;10600;53.096;8.802;2024-03-06T02:55:42;4.80;99.90
20881;DHT22;10600;53.096;8.802;2024-03-06T02:56:43;4.80;99.90
20881;DHT22;10600;53.096;8.802;2024-03-06T02:57:43;4.80;99.90
20881;DHT22;10600;53.096;8.802;2024-03-06T02:58:44;4.80;99.90
20881;DHT22;10600;53.096;8.802;2024-03-06T02:59:45;4.80;99.90
20881;DHT22;10600;53.096;8.802;2024-03-06T03:00:46;4.80;99.90
20881;DHT22;10600;53.096;8.802;2024-03-06T03:01:46;4.80;99.90
20881;DHT22;10600;53.096;8.802;2024-03-06T03:02:47;4.80;99.90
20881;DHT22;10600;53.096;8.802;2024-03-06T03:03:48;4.80;99.90
20881;DHT22;10600;53.096;8.802;2024-03-06T03:04:50;4.80;99.90
20881;DHT22;10600;53.096;8.802;2024-03-06T03:05:50;4.80;99.90
20881;DHT22;10600;53.096;8.802;2024-03-06T03:06:51;4.80;99.90
20881;DHT22;10600;53.096;8.802;2024-03-06T03:07:51;4.80;99.90
20881;DHT22;10600;53.096;8.802;2024-03-06T03:08:53;4.80;99.90
20881;DHT22;10600;53.096;8.802;2024-03-06T03:09:53;4.80;99.90
20881;DHT22;10600;53.096;8.802;2024-03-06T03:10:54;4.80;99.90
20881;DHT22;10600;53.096;8.802;2024-03-06T03:11:55;4.80;99.90
20881;DHT22;10600;53.096;8.802;2024-03-06T03:12:56;4.80;99.90
20881;DHT22;10600;53.096;8.802;2024-03-06T03:13:56;4.70;99.90
20881;DHT22;10600;53.096;8.802;2024-03-06T03:14:57;4.70;99.90
20881;DHT22;10600;53.096;8.802;2024-03-06T03:15:57;4.70;99.90
20881;DHT22;10600;53.096;8.802;2024-03-06T03:17:00;4.70;99.90
20881;DHT22;10600;53.096;8.802;2024-03-06T03:18:01;4.70;99.90
20881;DHT22;10600;53.096;8.802;2024-03-06T03:19:01;4.70;99.90
20881;DHT22;10600;53.096;8.802;2024-03-06T03:20:03;4.70;99.90
20881;DHT22;10600;53.096;8.802;2024-03-06T03:21:10;4.70;99.90
20881;DHT22;10600;53.096;8.802;2024-03-06T03:22:11;4.70;99.90
20881;DHT22;10600;53.096;8.802;2024-03-06T03:23:12;4.70;99.90
20881;DHT22;10600;53.096;8.802;2024-03-06T03:24:15;4.70;99.90
20881;DHT22;10600;53.096;8.802;2024-03-06T03:25:16;4.70;99.90
20881;DHT22;10600;53.096;8.802;2024-03-06T03:26:17;4.70;99.90
20881;DHT22;10600;53.096;8.802;2024-03-06T03:27:17;4.60;99.90
20881;DHT22;10600;53.096;8.802;2024-03-06T03:28:18;4.60;99.90
20881;DHT22;10600;53.096;8.802;2024-03-06T03:29:19;4.60;99.90
20881;DHT22;10600;53.096;8.802;2024-03-06T03:30:21;4.60;99.90
20881;DHT22;10600;53.096;8.802;2024-03-06T03:31:22;4.60;99.90
20881;DHT22;10600;53.096;8.802;2024-03-06T03:32:22;4.50;99.90
20881;DHT22;10600;53.096;8.802;2024-03-06T03:33:23;4.60;99.90
20881;DHT22;10600;53.096;8.802;2024-03-06T03:34:24;4.60;99.90
20881;DHT22;10600;53.096;8.802;2024-03-06T03:35:24;4.60;99.90
20881;DHT22;10600;53.096;8.802;2024-03-06T03:36:25;4.60;99.90
20881;DHT22;10600;53.096;8.802;2024-03-06T03:37:26;4.60;99.90
20881;DHT22;10600;53.096;8.802;2024-03-06T03:38:26;4.60;99.90
20881;DHT22;10600;53.096;8.802;2024-03-06T03:39:27;4.60;99.90
20881;DHT22;10600;53.096;8.802;2024-03-06T03:40:28;4.60;99.90
20881;DHT22;10600;53.096;8.802;2024-03-06T03:41:28;4.60;99.90
20881;DHT22;10600;53.096;8.802;2024-03-06T03:42:29;4.60;99.90
20881;DHT22;10600;53.096;8.802;2024-03-06T03:43:30;4.60;99.90
20881;DHT22;10600;53.096;8.802;2024-03-06T03:44:32;4.60;99.90
20881;DHT22;10600;53.096;8.802;2024-03-06T03:45:32;4.60;99.90
20881;DHT22;10600;53.096;8.802;2024-03-06T03:46:34;4.60;99.90
20881;DHT22;10600;53.096;8.802;2024-03-06T03:47:34;4.50;99.90
20881;DHT22;10600;53.096;8.802;2024-03-06T03:48:35;4.60;99.90
20881;DHT22;10600;53.096;8.802;2024-03-06T03:49:37;4.50;99.90
20881;DHT22;10600;53.096;8.802;2024-03-06T03:50:37;4.50;99.90
20881;DHT22;10600;53.096;8.802;2024-03-06T03:51:39;4.50;99.90
20881;DHT22;10600;53.096;8.802;2024-03-06T03:52:39;4.50;99.90
20881;DHT22;10600;53.096;8.802;2024-03-06T03:53:42;4.50;99.90
20881;DHT22;10600;53.096;8.802;2024-03-06T03:54:42;4.50;99.90
20881;DHT22;10600;53.096;8.802;2024-03-06T03:55:43;4.50;99.90
20881;DHT22;10600;53.096;8.802;2024-03-06T03:56:43;4.50;99.90
20881;DHT22;10600;53.096;8.802;2024-03-06T03:57:44;4.50;99.90
20881;DHT22;10600;53.096;8.802;2024-03-06T03:58:44;4.50;99.90
20881;DHT22;10600;53.096;8.802;2024-03-06T03:59:45;4.50;99.90
20881;DHT22;10600;53.096;8.802;2024-03-06T04:00:45;4.50;99.90
20881;DHT22;10600;53.096;8.802;2024-03-06T04:01:46;4.50;99.90
20881;DHT22;10600;53.096;8.802;2024-03-06T04:02:50;4.50;99.90
20881;DHT22;10600;53.096;8.802;2024-03-06T04:03:51;4.50;99.90
20881;DHT22;10600;53.096;8.802;2024-03-06T04:04:52;4.50;99.90
20881;DHT22;10600;53.096;8.802;2024-03-06T04:05:52;4.50;99.90
20881;DHT22;10600;53.096;8.802;2024-03-06T04:06:53;4.50;99.90
20881;DHT22;10600;53.096;8.802;2024-03-06T04:07:53;4.50;99.90
20881;DHT22;10600;53.096;8.802;2024-03-06T04:08:54;4.50;99.90
20881;DHT22;10600;53.096;8.802;2024-03-06T04:09:54;4.50;99.90
20881;DHT22;10600;53.096;8.802;2024-03-06T04:10:55;4.50;99.90
20881;DHT22;10600;53.096;8.802;2024-03-06T04:11:56;4.50;99.90
20881;DHT22;10600;53.096;8.802;2024-03-06T04:12:56;4.50;99.90
20881;DHT22;10600;53.096;8.802;2024-03-06T04:13:59;4.50;99.90
20881;DHT22;10600;53.096;8.802;2024-03-06T04:14:59;4.50;99.90
20881;DHT22;10600;53.096;8.802;2024-03-06T04:16:00;4.50;99.90
20881;DHT22;10600;53.096;8.802;2024-03-06T04:17:00;4.50;99.90
20881;DHT22;10600;53.096;8.802;2024-03-06T04:18:03;4.50;99.90
20881;DHT22;10600;53.096;8.802;2024-03-06T04:19:03;4.50;99.90
20881;DHT22;10600;53.096;8.802;2024-03-06T04:20:04;4.50;99.90
20881;DHT22;10600;53.096;8.802;2024-03-06T04:21:07;4.40;99.90
20881;DHT22;10600;53.096;8.802;2024-03-06T04:22:07;4.40;99.90
20881;DHT22;10600;53.096;8.802;2024-03-06T04:23:08;4.40;99.90
20881;DHT22;10600;53.096;8.802;2024-03-06T04:24:08;4.40;99.90
20881;DHT22;10600;53.096;8.802;2024-03-06T04:25:09;4.40;99.90
20881;DHT22;10600;53.096;8.802;2024-03-06T04:26:10;4.40;99.90
20881;DHT22;10600;53.096;8.802;2024-03-06T04:27:12;4.40;99.90
20881;DHT22;10600;53.096;8.802;2024-03-06T04:28:12;4.30;99.90
20881;DHT22;10600;53.096;8.802;2024-03-06T04:29:13;4.30;99.90
20881;DHT22;10600;53.096;8.802;2024-03-06T04:30:14;4.30;99.90
20881;DHT22;10600;53.096;8.802;2024-03-06T04:31:14;4.40;99.90
20881;DHT22;10600;53.096;8.802;2024-03-06T04:32:15;4.30;99.90
20881;DHT22;10600;53.096;8.802;2024-03-06T04:33:15;4.30;99.90
20881;DHT22;10600;53.096;8.802;2024-03-06T04:34:16;4.30;99.90
20881;DHT22;10600;53.096;8.802;2024-03-06T04:35:16;4.30;99.90
20881;DHT22;10600;53.096;8.802;2024-03-06T04:36:17;4.30;99.90
20881;DHT22;10600;53.096;8.802;2024-03-06T04:37:17;4.30;99.90
20881;DHT22;10600;53.096;8.802;2024-03-06T04:38:19;4.30;99.90
20881;DHT22;10600;53.096;8.802;2024-03-06T04:39:19;4.30;99.90
20881;DHT22;10600;53.096;8.802;2024-03-06T04:40:20;4.30;99.90
20881;DHT22;10600;53.096;8.802;2024-03-06T04:41:22;4.30;99.90
20881;DHT22;10600;53.096;8.802;2024-03-06T04:42:23;4.30;99.90
20881;DHT22;10600;53.096;8.802;2024-03-06T04:43:24;4.30;99.90
20881;DHT22;10600;53.096;8.802;2024-03-06T04:44:25;4.40;99.90
20881;DHT22;10600;53.096;8.802;2024-03-06T04:45:25;4.30;99.90
20881;DHT22;10600;53.096;8.802;2024-03-06T04:46:26;4.30;99.90
20881;DHT22;10600;53.096;8.802;2024-03-06T04:47:26;4.30;99.90
20881;DHT22;10600;53.096;8.802;2024-03-06T04:48:27;4.30;99.90
20881;DHT22;10600;53.096;8.802;2024-03-06T04:49:27;4.30;99.90
20881;DHT22;10600;53.096;8.802;2024-03-06T04:50:28;4.20;99.90
20881;DHT22;10600;53.096;8.802;2024-03-06T04:51:29;4.20;99.90
20881;DHT22;10600;53.096;8.802;2024-03-06T04:52:29;4.10;99.90
20881;DHT22;10600;53.096;8.802;2024-03-06T04:53:30;4.10;99.90
20881;DHT22;10600;53.096;8.802;2024-03-06T04:54:30;4.10;99.90
20881;DHT22;10600;53.096;8.802;2024-03-06T04:55:31;4.10;99.90
20881;DHT22;10600;53.096;8.802;2024-03-06T04:56:31;4.10;99.90
20881;DHT22;10600;53.096;8.802;2024-03-06T04:57:32;4.10;99.90
20881;DHT22;10600;53.096;8.802;2024-03-06T04:58:32;4.10;99.90
20881;DHT22;10600;53.096;8.802;2024-03-06T04:59:33;4.10;99.90
20881;DHT22;10600;53.096;8.802;2024-03-06T05:00:33;4.10;99.90
20881;DHT22;10600;53.096;8.802;2024-03-06T05:01:34;4.10;99.90
20881;DHT22;10600;53.096;8.802;2024-03-06T05:02:34;4.10;99.90
20881;DHT22;10600;53.096;8.802;2024-03-06T05:03:37;4.10;99.90
20881;DHT22;10600;53.096;8.802;2024-03-06T05:04:38;4.10;99.90
20881;DHT22;10600;53.096;8.802;2024-03-06T05:05:39;4.10;99.90
20881;DHT22;10600;53.096;8.802;2024-03-06T05:06:40;4.00;99.90
20881;DHT22;10600;53.096;8.802;2024-03-06T05:07:40;4.00;99.90
20881;DHT22;10600;53.096;8.802;2024-03-06T05:08:41;4.00;99.90
20881;DHT22;10600;53.096;8.802;2024-03-06T05:09:41;4.00;99.90
20881;DHT22;10600;53.096;8.802;2024-03-06T05:10:42;4.00;99.90
20881;DHT22;10600;53.096;8.802;2024-03-06T05:11:43;3.90;99.90
20881;DHT22;10600;53.096;8.802;2024-03-06T05:12:43;4.00;99.90
20881;DHT22;10600;53.096;8.802;2024-03-06T05:13:44;4.00;99.90
20881;DHT22;10600;53.096;8.802;2024-03-06T05:14:44;4.00;99.90
20881;DHT22;10600;53.096;8.802;2024-03-06T05:15:45;4.00;99.90
20881;DHT22;10600;53.096;8.802;2024-03-06T05:16:45;4.00;99.90
20881;DHT22;10600;53.096;8.802;2024-03-06T05:17:46;3.90;99.90
20881;DHT22;10600;53.096;8.802;2024-03-06T05:18:46;3.90;99.90
20881;DHT22;10600;53.096;8.802;2024-03-06T05:19:48;3.90;99.90
20881;DHT22;10600;53.096;8.802;2024-03-06T05:20:49;4.00;99.90
20881;DHT22;10600;53.096;8.802;2024-03-06T05:21:50;4.00;99.90
20881;DHT22;10600;53.096;8.802;2024-03-06T05:22:50;4.00;99.90
20881;DHT22;10600;53.096;8.802;2024-03-06T05:23:51;3.90;99.90
20881;DHT22;10600;53.096;8.802;2024-03-06T05:24:52;3.90;99.90
20881;DHT22;10600;53.096;8.802;2024-03-06T05:25:55;3.90;99.90
20881;DHT22;10600;53.096;8.802;2024-03-06T05:26:55;3.90;99.90
20881;DHT22;10600;53.096;8.802;2024-03-06T05:27:56;3.90;99.90
20881;DHT22;10600;53.096;8.802;2024-03-06T05:28:57;4.00;99.90
20881;DHT22;10600;53.096;8.802;2024-03-06T05:30:04;4.00;99.90
20881;DHT22;10600;53.096;8.802;2024-03-06T05:31:18;4.00;99.90
20881;DHT22;10600;53.096;8.802;2024-03-06T05:32:19;4.00;99.90
20881;DHT22;10600;53.096;8.802;2024-03-06T05:33:20;4.00;99.90
20881;DHT22;10600;53.096;8.802;2024-03-06T05:34:20;4.00;99.90
20881;DHT22;10600;53.096;8.802;2024-03-06T05:35:21;4.00;99.90
20881;DHT22;10600;53.096;8.802;2024-03-06T05:36:21;4.00;99.90
20881;DHT22;10600;53.096;8.802;2024-03-06T05:37:22;4.00;99.90
20881;DHT22;10600;53.096;8.802;2024-03-06T05:38:22;4.10;99.90
20881;DHT22;10600;53.096;8.802;2024-03-06T05:39:23;4.10;99.90
20881;DHT22;10600;53.096;8.802;2024-03-06T05:40:23;4.00;99.90
20881;DHT22;10600;53.096;8.802;2024-03-06T05:41:24;4.00;99.90
20881;DHT22;10600;53.096;8.802;2024-03-06T05:42:24;4.10;99.90
20881;DHT22;10600;53.096;8.802;2024-03-06T05:43:25;4.10;99.90
20881;DHT22;10600;53.096;8.802;2024-03-06T05:44:25;4.00;99.90
20881;DHT22;10600;53.096;8.802;2024-03-06T05:45:26;4.10;99.90
20881;DHT22;10600;53.096;8.802;2024-03-06T05:46:27;4.00;99.90
20881;DHT22;10600;53.096;8.802;2024-03-06T05:47:28;4.10;99.90
20881;DHT22;10600;53.096;8.802;2024-03-06T05:48:28;4.10;99.90
20881;DHT22;10600;53.096;8.802;2024-03-06T05:49:29;4.10;99.90
20881;DHT22;10600;53.096;8.802;2024-03-06T05:50:30;4.10;99.90
20881;DHT22;10600;53.096;8.802;2024-03-06T05:51:30;4.10;99.90
20881;DHT22;10600;53.096;8.802;2024-03-06T05:52:32;4.10;99.90
20881;DHT22;10600;53.096;8.802;2024-03-06T05:53:36;4.10;99.90
20881;DHT22;10600;53.096;8.802;2024-03-06T05:54:37;4.10;99.90
20881;DHT22;10600;53.096;8.802;2024-03-06T05:55:38;4.10;99.90
20881;DHT22;10600;53.096;8.802;2024-03-06T05:56:38;4.00;99.90
20881;DHT22;10600;53.096;8.802;2024-03-06T05:57:39;4.00;99.90
20881;DHT22;10600;53.096;8.802;2024-03-06T05:58:45;4.00;99.90
20881;DHT22;10600;53.096;8.802;2024-03-06T05:59:47;4.00;99.90
20881;DHT22;10600;53.096;8.802;2024-03-06T06:00:47;4.00;99.90
20881;DHT22;10600;53.096;8.802;2024-03-06T06:01:48;4.00;99.90
20881;DHT22;10600;53.096;8.802;2024-03-06T06:02:48;4.00;99.90
20881;DHT22;10600;53.096;8.802;2024-03-06T06:03:49;4.00;99.90
20881;DHT22;10600;53.096;8.802;2024-03-06T06:04:50;4.00;99.90
20881;DHT22;10600;53.096;8.802;2024-03-06T06:05:50;4.10;99.90
20881;DHT22;10600;53.096;8.802;2024-03-06T06:06:51;4.10;99.90
20881;DHT22;10600;53.096;8.802;2024-03-06T06:07:52;4.00;99.90
20881;DHT22;10600;53.096;8.802;2024-03-06T06:08:52;4.10;99.90
20881;DHT22;10600;53.096;8.802;2024-03-06T06:09:53;4.10;99.90
20881;DHT22;10600;53.096;8.802;2024-03-06T06:10:53;4.10;99.90
20881;DHT22;10600;53.096;8.802;2024-03-06T06:11:55;4.10;99.90
20881;DHT22;10600;53.096;8.802;2024-03-06T06:12:55;4.10;99.90
20881;DHT22;10600;53.096;8.802;2024-03-06T06:13:56;4.10;99.90
20881;DHT22;10600;53.096;8.802;2024-03-06T06:14:56;4.10;99.90
20881;DHT22;10600;53.096;8.802;2024-03-06T06:16:00;4.10;99.90
20881;DHT22;10600;53.096;8.802;2024-03-06T06:17:03;4.10;99.90
20881;DHT22;10600;53.096;8.802;2024-03-06T06:18:04;4.10;99.90
20881;DHT22;10600;53.096;8.802;2024-03-06T06:19:04;4.10;99.90
20881;DHT22;10600;53.096;8.802;2024-03-06T06:20:07;4.10;99.90
20881;DHT22;10600;53.096;8.802;2024-03-06T06:21:09;4.10;99.90
20881;DHT22;10600;53.096;8.802;2024-03-06T06:22:10;4.10;99.90
20881;DHT22;10600;53.096;8.802;2024-03-06T06:23:12;4.10;99.90
20881;DHT22;10600;53.096;8.802;2024-03-06T06:24:13;4.20;99.90
20881;DHT22;10600;53.096;8.802;2024-03-06T06:25:14;4.10;99.90
20881;DHT22;10600;53.096;8.802;2024-03-06T06:26:16;4.10;99.90
20881;DHT22;10600;53.096;8.802;2024-03-06T06:27:17;4.20;99.90
20881;DHT22;10600;53.096;8.802;2024-03-06T06:28:18;4.20;99.90
20881;DHT22;10600;53.096;8.802;2024-03-06T06:29:18;4.20;99.90
20881;DHT22;10600;53.096;8.802;2024-03-06T06:30:19;4.20;99.90
20881;DHT22;10600;53.096;8.802;2024-03-06T06:31:20;4.20;99.90